createdAt,value
2022-08-11T00:02:00.474Z,2.40
2022-08-11T00:04:28.743Z,2.83
2022-08-11T00:06:56.643Z,2.70
2022-08-11T00:09:39.334Z,3.20
2022-08-11T00:12:13.830Z,2.90
2022-08-11T00:14:42.034Z,2.77
2022-08-11T00:17:11.725Z,2.60
2022-08-11T00:20:12.893Z,2.90
2022-08-11T00:22:30.309Z,2.57
2022-08-11T00:25:02.342Z,2.80
2022-08-11T00:27:34.721Z,2.93
2022-08-11T00:30:02.590Z,3.63
2022-08-11T00:32:31.182Z,2.97
2022-08-11T00:35:56.047Z,3.13
2022-08-11T00:37:50.618Z,2.20
2022-08-11T00:40:29.376Z,2.50
2022-08-11T00:43:03.035Z,2.57
2022-08-11T00:45:34.638Z,2.30
2022-08-11T00:48:06.395Z,3.40
2022-08-11T00:50:42.633Z,3.00
2022-08-11T00:53:37.918Z,2.63
2022-08-11T00:56:18.874Z,2.30
2022-08-11T00:59:35.159Z,3.00
2022-08-11T01:02:18.683Z,3.37
2022-08-11T01:05:16.097Z,2.83
2022-08-11T01:08:20.703Z,2.60
2022-08-11T01:11:03.817Z,3.40
2022-08-11T01:13:59.175Z,3.83
2022-08-11T01:16:51.880Z,3.37
2022-08-11T01:20:44.710Z,3.53
2022-08-11T01:22:59.440Z,2.93
2022-08-11T01:25:57.951Z,3.37
2022-08-11T01:28:54.635Z,2.97
2022-08-11T01:31:49.651Z,3.37
2022-08-11T01:34:51.161Z,3.13
2022-08-11T01:37:45.097Z,3.90
2022-08-11T01:40:39.251Z,4.10
2022-08-11T01:43:47.478Z,3.40
2022-08-11T01:46:18.008Z,3.13
2022-08-11T01:48:54.835Z,3.50
2022-08-11T01:51:30.205Z,3.30
2022-08-11T01:54:04.325Z,4.10
2022-08-11T01:56:53.092Z,3.97
2022-08-11T01:59:26.217Z,4.60
2022-08-11T02:02:44.421Z,3.50
2022-08-11T02:05:22.026Z,3.43
2022-08-11T02:07:57.258Z,4.03
2022-08-11T02:10:50.703Z,3.67
2022-08-11T02:13:30.334Z,3.00
2022-08-11T02:16:11.655Z,2.60
2022-08-11T02:18:58.634Z,3.30
2022-08-11T02:21:48.539Z,3.27
2022-08-11T02:24:20.486Z,3.70
2022-08-11T02:26:52.883Z,3.70
2022-08-11T02:29:25.195Z,4.03
2022-08-11T02:32:29.576Z,4.20
2022-08-11T02:35:03.328Z,3.70
2022-08-11T02:37:45.225Z,4.43
2022-08-11T02:40:21.671Z,4.53
2022-08-11T02:43:10.129Z,3.73
2022-08-11T02:45:53.951Z,4.00
2022-08-11T02:48:51.714Z,3.80
2022-08-11T02:51:27.256Z,3.90
2022-08-11T02:54:02.911Z,3.80
2022-08-11T02:56:44.653Z,3.93
2022-08-11T02:59:41.773Z,4.13
2022-08-11T03:02:16.412Z,3.50
2022-08-11T03:04:53.323Z,3.80
2022-08-11T03:07:28.989Z,3.60
2022-08-11T03:10:03.157Z,4.70
2022-08-11T03:12:53.804Z,3.77
2022-08-11T03:15:45.237Z,3.73
2022-08-11T03:18:18.281Z,3.57
2022-08-11T03:20:50.244Z,3.73
2022-08-11T03:23:22.871Z,4.10
2022-08-11T03:25:56.934Z,4.20
2022-08-11T03:28:31.085Z,3.63
2022-08-11T03:31:20.243Z,4.07
2022-08-11T03:34:06.741Z,4.70
2022-08-11T03:37:17.881Z,4.13
2022-08-11T03:39:57.223Z,4.13
2022-08-11T03:42:28.350Z,3.90
2022-08-11T03:45:02.195Z,4.20
2022-08-11T03:47:54.909Z,3.83
2022-08-11T03:50:37.579Z,4.10
2022-08-11T03:53:13.620Z,3.90
2022-08-11T03:56:01.647Z,3.73
2022-08-11T03:58:53.048Z,4.43
2022-08-11T04:01:55.664Z,3.30
2022-08-11T04:04:56.513Z,5.20
2022-08-11T04:08:11.218Z,4.97
2022-08-11T04:11:00.042Z,6.10
2022-08-11T04:13:42.471Z,5.63
2022-08-11T04:16:44.851Z,4.93
2022-08-11T04:19:37.389Z,4.80
2022-08-11T04:22:33.413Z,4.13
2022-08-11T04:25:58.135Z,6.33
2022-08-11T04:28:43.095Z,5.90
2022-08-11T04:31:50.410Z,4.43
2022-08-11T04:34:37.522Z,5.10
2022-08-11T04:37:35.562Z,4.10
2022-08-11T04:40:27.610Z,4.60
2022-08-11T04:43:37.861Z,4.80
2022-08-11T04:46:48.799Z,4.07
2022-08-11T04:49:47.210Z,4.20
2022-08-11T04:52:51.509Z,3.93
2022-08-11T04:55:51.211Z,4.13
2022-08-11T04:58:40.373Z,4.50
2022-08-11T05:01:39.213Z,4.60
2022-08-11T05:04:43.186Z,5.00
2022-08-11T05:07:25.891Z,5.00
2022-08-11T05:10:11.635Z,5.07
2022-08-11T05:12:43.537Z,4.57
2022-08-11T05:15:42.490Z,4.67
2022-08-11T05:18:34.933Z,5.70
2022-08-11T05:21:23.826Z,4.33
2022-08-11T05:24:12.460Z,5.10
2022-08-11T05:27:03.577Z,4.70
2022-08-11T05:30:00.516Z,5.00
2022-08-11T05:33:01.689Z,4.30
2022-08-11T05:36:02.434Z,4.17
2022-08-11T05:38:42.270Z,4.50
2022-08-11T05:41:29.533Z,4.17
2022-08-11T05:44:19.681Z,4.10
2022-08-11T05:47:08.142Z,4.20
2022-08-11T05:49:53.550Z,4.90
2022-08-11T05:52:42.399Z,4.33
2022-08-11T05:55:29.066Z,4.10
2022-08-11T05:57:58.143Z,4.00
2022-08-11T06:00:26.009Z,3.90
2022-08-11T06:02:56.020Z,4.30
2022-08-11T06:05:38.247Z,4.57
2022-08-11T06:08:13.383Z,3.80
2022-08-11T06:10:43.745Z,3.93
2022-08-11T06:13:12.474Z,4.07
2022-08-11T06:15:46.981Z,4.27
2022-08-11T06:18:15.360Z,3.70
2022-08-11T06:20:50.854Z,3.27
2022-08-11T06:23:23.792Z,3.43
2022-08-11T06:25:53.011Z,3.63
2022-08-11T06:28:30.782Z,3.60
2022-08-11T06:30:58.902Z,3.60
2022-08-11T06:33:31.705Z,3.40
2022-08-11T06:36:04.522Z,3.50
2022-08-11T06:38:50.848Z,3.60
2022-08-11T06:41:31.756Z,3.27
2022-08-11T06:44:08.509Z,3.30
2022-08-11T06:46:38.799Z,3.60
2022-08-11T06:49:27.518Z,2.90
2022-08-11T06:51:54.840Z,3.47
2022-08-11T06:54:30.464Z,3.00
2022-08-11T06:57:31.658Z,3.30
2022-08-11T07:00:17.519Z,3.07
2022-08-11T07:02:49.457Z,3.40
2022-08-11T07:05:22.573Z,2.90
2022-08-11T07:08:33.666Z,2.47
2022-08-11T07:11:37.165Z,2.53
2022-08-11T07:14:23.078Z,3.03
2022-08-11T07:16:51.623Z,2.40
2022-08-11T07:19:40.735Z,3.10
2022-08-11T07:22:28.823Z,2.80
2022-08-11T07:25:16.836Z,2.50
2022-08-11T07:28:06.643Z,2.80
2022-08-11T07:30:37.618Z,2.70
2022-08-11T07:33:05.759Z,3.10
2022-08-11T07:35:36.528Z,2.50
2022-08-11T07:38:08.029Z,2.60
2022-08-11T07:40:36.546Z,2.20
2022-08-11T07:43:07.208Z,2.70
2022-08-11T07:45:52.890Z,2.43
2022-08-11T07:48:38.576Z,2.90
2022-08-11T07:51:24.011Z,2.53
2022-08-11T07:53:58.474Z,2.50
2022-08-11T07:56:55.116Z,2.27
2022-08-11T08:00:03.330Z,2.93
2022-08-11T08:02:57.191Z,2.90
2022-08-11T08:05:42.473Z,2.90
2022-08-11T08:08:28.008Z,2.40
2022-08-11T08:11:13.987Z,2.50
2022-08-11T08:13:59.862Z,3.07
2022-08-11T08:16:48.090Z,2.97
2022-08-11T08:19:17.533Z,2.70
2022-08-11T08:21:45.929Z,2.17
2022-08-11T08:24:13.787Z,2.70
2022-08-11T08:27:01.383Z,2.40
2022-08-11T08:29:50.058Z,2.47
2022-08-11T08:32:19.791Z,2.90
2022-08-11T08:34:47.738Z,2.70
2022-08-11T08:37:46.870Z,3.37
2022-08-11T08:40:03.683Z,2.67
2022-08-11T08:42:33.049Z,2.90
2022-08-11T08:45:05.432Z,2.77
2022-08-11T08:47:41.686Z,2.43
2022-08-11T08:50:16.470Z,2.50
2022-08-11T08:52:49.595Z,2.87
2022-08-11T08:55:19.608Z,2.70
2022-08-11T08:57:49.815Z,2.77
2022-08-11T09:00:23.176Z,2.50
2022-08-11T09:02:54.965Z,2.50
2022-08-11T09:05:25.797Z,2.73
2022-08-11T09:07:57.681Z,2.50
2022-08-11T09:10:26.353Z,2.60
2022-08-11T09:12:54.027Z,3.83
2022-08-11T09:15:22.332Z,2.83
2022-08-11T09:17:52.918Z,2.50
2022-08-11T09:20:21.343Z,2.63
2022-08-11T09:26:15.006Z,2.43
2022-08-11T09:28:43.802Z,1.80
2022-08-11T09:31:13.421Z,2.00
2022-08-11T09:33:44.090Z,1.90
2022-08-11T09:36:31.357Z,1.87
2022-08-11T09:39:17.071Z,2.10
2022-08-11T09:42:01.300Z,2.23
2022-08-11T09:44:48.737Z,2.00
2022-08-11T09:47:23.074Z,1.90
2022-08-11T09:49:53.738Z,2.10
2022-08-11T09:52:21.795Z,1.70
2022-08-11T09:54:51.021Z,1.97
2022-08-11T09:57:39.717Z,2.50
2022-08-11T10:00:13.196Z,2.40
2022-08-11T10:02:44.405Z,1.70
2022-08-11T10:05:34.143Z,1.63
2022-08-11T10:08:02.190Z,2.50
2022-08-11T10:10:30.958Z,2.20
2022-08-11T10:13:01.632Z,2.00
2022-08-11T10:15:38.260Z,1.60
2022-08-11T10:18:26.731Z,1.80
2022-08-11T10:20:59.046Z,2.07
2022-08-11T10:24:01.464Z,1.90
2022-08-11T10:26:55.352Z,1.50
2022-08-11T10:29:44.570Z,1.60
2022-08-11T10:32:57.511Z,2.00
2022-08-11T10:35:27.010Z,1.67
2022-08-11T10:38:08.492Z,1.60
2022-08-11T10:40:47.360Z,1.97
2022-08-11T10:44:01.247Z,1.60
2022-08-11T10:46:29.685Z,1.70
2022-08-11T10:48:59.130Z,2.10
2022-08-11T10:51:50.963Z,1.70
2022-08-11T10:54:40.065Z,1.80
2022-08-11T10:57:25.684Z,1.73
2022-08-11T10:59:55.978Z,1.80
2022-08-11T11:02:23.649Z,1.90
2022-08-11T11:05:00.580Z,1.83
2022-08-11T11:07:44.196Z,1.70
2022-08-11T11:10:15.709Z,1.83
2022-08-11T11:13:03.535Z,2.10
2022-08-11T11:15:51.129Z,1.53
2022-08-11T11:18:21.881Z,1.53
2022-08-11T11:20:55.133Z,2.10
2022-08-11T11:23:26.830Z,1.90
2022-08-11T11:26:27.036Z,2.07
2022-08-11T11:29:12.119Z,1.50
2022-08-11T11:31:50.545Z,1.67
2022-08-11T11:34:53.319Z,1.40
2022-08-11T11:37:22.484Z,1.07
2022-08-11T11:39:50.531Z,1.57
2022-08-11T11:42:19.735Z,1.50
2022-08-11T11:44:48.165Z,1.50
2022-08-11T11:47:21.737Z,1.70
2022-08-11T11:49:50.552Z,1.83
2022-08-11T11:52:20.604Z,1.77
2022-08-11T11:54:50.450Z,1.33
2022-08-11T11:57:40.912Z,1.60
2022-08-11T12:00:33.508Z,1.33
2022-08-11T12:03:05.395Z,1.43
2022-08-11T12:05:36.500Z,1.43
2022-08-11T12:08:16.047Z,1.73
2022-08-11T12:10:49.474Z,1.60
2022-08-11T12:13:36.948Z,1.57
2022-08-11T12:16:34.668Z,1.10
2022-08-11T12:18:55.311Z,1.87
2022-08-11T12:21:24.022Z,1.20
2022-08-11T12:24:09.835Z,1.43
2022-08-11T12:27:16.716Z,1.37
2022-08-11T12:29:50.106Z,1.20
2022-08-11T12:32:24.278Z,1.80
2022-08-11T12:34:52.383Z,1.30
2022-08-11T12:37:23.588Z,1.40
2022-08-11T12:40:42.667Z,1.40
2022-08-11T12:43:21.246Z,1.80
2022-08-11T12:45:54.071Z,1.90
2022-08-11T12:48:58.828Z,1.57
2022-08-11T12:52:12.816Z,1.60
2022-08-11T12:54:43.227Z,1.60
2022-08-11T12:57:36.467Z,1.50
2022-08-11T13:00:24.137Z,1.50
2022-08-11T13:03:11.592Z,1.30
2022-08-11T13:05:44.793Z,2.57
2022-08-11T13:08:13.834Z,1.40
2022-08-11T13:10:59.757Z,1.83
2022-08-11T13:13:53.508Z,1.70
2022-08-11T13:16:18.739Z,2.00
2022-08-11T13:18:47.904Z,1.63
2022-08-11T13:21:19.998Z,1.17
2022-08-11T13:24:00.242Z,1.47
2022-08-11T13:26:47.014Z,1.57
2022-08-11T13:29:22.760Z,1.63
2022-08-11T13:31:51.149Z,1.47
2022-08-11T13:34:21.663Z,1.33
2022-08-11T13:36:52.368Z,1.80
2022-08-11T13:39:21.386Z,1.40
2022-08-11T13:41:54.038Z,1.70
2022-08-11T13:44:25.610Z,1.90
2022-08-11T13:46:56.251Z,1.50
2022-08-11T13:49:25.830Z,1.87
2022-08-11T13:51:54.135Z,1.50
2022-08-11T13:54:24.157Z,1.30
2022-08-11T13:56:54.210Z,1.57
2022-08-11T13:59:29.822Z,1.30
2022-08-11T14:02:21.734Z,1.60
2022-08-11T14:04:55.459Z,1.03
2022-08-11T14:07:25.495Z,1.60
2022-08-11T14:09:58.095Z,1.30
2022-08-11T14:12:44.838Z,1.20
2022-08-11T14:15:20.010Z,1.50
2022-08-11T14:17:52.612Z,1.00
2022-08-11T14:20:40.513Z,1.47
2022-08-11T14:23:10.872Z,1.40
2022-08-11T14:26:02.283Z,1.40
2022-08-11T14:28:36.568Z,1.40
2022-08-11T14:31:10.129Z,1.37
2022-08-11T14:34:01.072Z,1.37
2022-08-11T14:36:39.572Z,1.40
2022-08-11T14:39:12.676Z,1.40
2022-08-11T14:42:10.066Z,1.63
2022-08-11T14:44:59.946Z,1.70
2022-08-11T14:47:28.912Z,1.40
2022-08-11T14:50:09.474Z,1.17
2022-08-11T14:52:40.463Z,1.73
2022-08-11T14:55:28.189Z,1.37
2022-08-11T14:57:57.218Z,1.93
2022-08-11T15:00:26.044Z,1.73
2022-08-11T15:03:14.078Z,1.43
2022-08-11T15:05:57.591Z,1.43
2022-08-11T15:08:46.436Z,1.30
2022-08-11T15:11:34.792Z,1.77
2022-08-11T15:14:04.431Z,1.30
2022-08-11T15:16:50.426Z,1.70
2022-08-11T15:19:21.183Z,1.37
2022-08-11T15:22:06.680Z,1.80
2022-08-11T15:24:36.267Z,1.60
2022-08-11T15:27:28.374Z,1.63
2022-08-11T15:30:20.952Z,1.50
2022-08-11T15:33:21.732Z,1.57
2022-08-11T15:36:07.678Z,1.70
2022-08-11T15:38:37.369Z,1.70
2022-08-11T15:41:36.089Z,1.90
2022-08-11T15:44:44.433Z,1.70
2022-08-11T15:47:14.337Z,1.87
2022-08-11T15:50:12.835Z,1.40
2022-08-11T15:52:33.187Z,1.40
2022-08-11T15:55:08.708Z,1.80
2022-08-11T15:57:55.596Z,1.93
2022-08-11T16:00:42.737Z,1.47
2022-08-11T16:03:50.400Z,1.60
2022-08-11T16:06:16.577Z,1.30
2022-08-11T16:08:46.082Z,1.47
2022-08-11T16:11:14.629Z,1.40
2022-08-11T16:14:00.272Z,1.50
2022-08-11T16:16:29.775Z,2.07
2022-08-11T16:18:58.750Z,1.50
2022-08-11T16:21:35.190Z,1.53
2022-08-11T16:24:07.551Z,1.53
2022-08-11T16:27:10.440Z,1.43
2022-08-11T16:29:27.180Z,1.60
2022-08-11T16:32:14.445Z,2.37
2022-08-11T16:35:01.205Z,1.93
2022-08-11T16:37:46.926Z,1.63
2022-08-11T16:40:15.983Z,1.13
2022-08-11T16:43:10.615Z,1.80
2022-08-11T16:45:57.851Z,1.70
2022-08-11T16:48:35.670Z,1.80
2022-08-11T16:51:06.969Z,1.40
2022-08-11T16:54:03.352Z,1.73
2022-08-11T16:56:26.321Z,1.47
2022-08-11T16:59:14.537Z,1.40
2022-08-11T17:01:44.674Z,1.83
2022-08-11T17:04:35.981Z,1.60
2022-08-11T17:07:40.396Z,1.50
2022-08-11T17:10:50.530Z,1.67
2022-08-11T17:13:25.026Z,1.73
2022-08-11T17:16:12.599Z,2.87
2022-08-11T17:18:47.252Z,1.80
2022-08-11T17:21:21.585Z,1.40
2022-08-11T17:23:51.880Z,1.63
2022-08-11T17:26:49.414Z,1.30
2022-08-11T17:29:18.396Z,1.50
2022-08-11T17:32:04.442Z,1.60
2022-08-11T17:34:49.673Z,1.77
2022-08-11T17:37:19.982Z,1.60
2022-08-11T17:39:48.763Z,1.83
2022-08-11T17:42:36.125Z,1.60
2022-08-11T17:45:24.629Z,1.87
2022-08-11T17:48:10.218Z,1.77
2022-08-11T17:50:38.205Z,1.70
2022-08-11T17:53:25.187Z,1.70
2022-08-11T17:56:11.503Z,1.47
2022-08-11T17:58:58.666Z,2.03
2022-08-11T18:01:27.157Z,2.43
2022-08-11T18:03:57.924Z,1.10
2022-08-11T18:06:33.498Z,1.60
2022-08-11T18:09:23.857Z,1.30
2022-08-11T18:12:12.960Z,1.40
2022-08-11T18:15:01.139Z,1.40
2022-08-11T18:17:46.730Z,1.73
2022-08-11T18:20:35.977Z,1.43
2022-08-11T18:23:40.088Z,1.57
2022-08-11T18:26:34.390Z,1.87
2022-08-11T18:29:20.078Z,1.50
2022-08-11T18:32:07.598Z,1.50
2022-08-11T18:34:56.246Z,2.30
2022-08-11T18:37:44.744Z,2.27
2022-08-11T18:40:33.222Z,1.60
2022-08-11T18:43:26.889Z,1.50
2022-08-11T18:46:18.580Z,1.97
2022-08-11T18:49:10.658Z,2.00
2022-08-11T18:51:59.675Z,1.60
2022-08-11T18:54:49.946Z,1.70
2022-08-11T18:57:49.906Z,2.00
2022-08-11T19:00:44.240Z,1.77
2022-08-11T19:03:31.417Z,1.90
2022-08-11T19:06:38.291Z,1.60
2022-08-11T19:09:27.815Z,1.63
2022-08-11T19:12:14.068Z,1.90
2022-08-11T19:15:00.476Z,1.67
2022-08-11T19:17:49.378Z,2.10
2022-08-11T19:20:37.384Z,1.87
2022-08-11T19:23:24.777Z,1.50
2022-08-11T19:26:10.572Z,1.90
2022-08-11T19:28:57.736Z,1.97
2022-08-11T19:31:45.264Z,1.70
2022-08-11T19:34:33.114Z,1.77
2022-08-11T19:37:23.518Z,1.50
2022-08-11T19:40:10.698Z,1.90
2022-08-11T19:42:56.386Z,1.67
2022-08-11T19:45:41.702Z,1.70
2022-08-11T19:48:32.665Z,1.87
2022-08-11T19:51:19.414Z,1.60
2022-08-11T19:54:06.422Z,2.00
2022-08-11T19:56:52.627Z,1.37
2022-08-11T19:59:38.478Z,1.70
2022-08-11T20:02:24.841Z,1.90
2022-08-11T20:05:10.112Z,2.13
2022-08-11T20:07:57.288Z,1.70
2022-08-11T20:10:44.307Z,1.97
2022-08-11T20:13:30.764Z,1.40
2022-08-11T20:16:17.773Z,2.13
2022-08-11T20:19:04.591Z,2.17
2022-08-11T20:21:50.225Z,2.03
2022-08-11T20:24:37.539Z,2.17
2022-08-11T20:27:24.544Z,1.70
2022-08-11T20:30:11.733Z,1.30
2022-08-11T20:32:58.613Z,2.03
2022-08-11T20:35:45.000Z,1.90
2022-08-11T20:38:30.513Z,1.80
2022-08-11T20:41:17.159Z,1.67
2022-08-11T20:44:05.852Z,2.20
2022-08-11T20:46:55.245Z,1.70
2022-08-11T20:49:48.739Z,1.53
2022-08-11T20:52:40.448Z,2.37
2022-08-11T20:55:51.301Z,1.53
2022-08-11T20:59:01.098Z,2.10
2022-08-11T21:01:41.078Z,1.83
2022-08-11T21:04:26.983Z,2.20
2022-08-11T21:07:28.092Z,1.73
2022-08-11T21:10:22.869Z,1.97
2022-08-11T21:13:18.059Z,1.83
2022-08-11T21:16:26.270Z,1.67
2022-08-11T21:19:16.353Z,1.77
2022-08-11T21:22:03.820Z,1.87
2022-08-11T21:24:51.158Z,2.50
2022-08-11T21:27:36.944Z,2.50
2022-08-11T21:30:23.517Z,3.20
2022-08-11T21:33:10.448Z,2.07
2022-08-11T21:35:56.093Z,2.57
2022-08-11T21:38:41.375Z,2.73
2022-08-11T21:41:28.875Z,1.80
2022-08-11T21:44:16.047Z,1.77
2022-08-11T21:47:01.647Z,1.80
2022-08-11T21:49:49.252Z,2.23
2022-08-11T21:52:35.354Z,2.03
2022-08-11T21:55:21.777Z,2.00
2022-08-11T21:58:07.489Z,2.13
2022-08-11T22:00:53.224Z,2.50
2022-08-11T22:03:49.496Z,2.03
2022-08-11T22:06:36.993Z,2.00
2022-08-11T22:09:23.041Z,1.97
2022-08-11T22:12:33.643Z,1.80
2022-08-11T22:15:13.883Z,2.43
2022-08-11T22:17:59.310Z,2.07
2022-08-11T22:20:45.745Z,2.20
2022-08-11T22:23:35.862Z,2.30
2022-08-11T22:26:22.670Z,2.93
2022-08-11T22:29:08.070Z,2.20
2022-08-11T22:31:54.102Z,2.03
2022-08-11T22:34:51.221Z,2.93
2022-08-11T22:37:38.771Z,2.43
2022-08-11T22:40:27.493Z,2.20
2022-08-11T22:43:12.913Z,1.63
2022-08-11T22:45:58.111Z,2.63
2022-08-11T22:48:44.726Z,2.07
2022-08-11T22:51:31.118Z,2.00
2022-08-11T22:54:16.743Z,2.30
2022-08-11T22:57:03.361Z,2.13
2022-08-11T22:59:48.862Z,2.30
2022-08-11T23:02:34.403Z,2.10
2022-08-11T23:05:20.198Z,2.10
2022-08-11T23:08:05.886Z,1.97
2022-08-11T23:10:51.805Z,1.80
2022-08-11T23:13:38.994Z,2.53
2022-08-11T23:16:25.072Z,2.43
2022-08-11T23:19:10.467Z,2.50
2022-08-11T23:21:56.155Z,2.47
2022-08-11T23:24:43.716Z,2.10
2022-08-11T23:27:29.057Z,2.53
2022-08-11T23:30:17.259Z,2.00
2022-08-11T23:33:05.872Z,2.00
2022-08-11T23:35:58.051Z,1.97
2022-08-11T23:38:46.850Z,1.77
2022-08-11T23:41:32.243Z,1.67
2022-08-11T23:44:18.281Z,1.80
2022-08-11T23:47:04.986Z,1.70
2022-08-11T23:49:50.786Z,3.10
2022-08-11T23:52:36.836Z,2.70
2022-08-11T23:55:22.785Z,3.20
2022-08-11T23:58:08.408Z,2.50
